sensor_id;sensor_type;location;lat;lon;timestamp;temperature;humidity
30250;DHT22;17064;47.974;13.826;2022-12-22T04:00:25;0.10;99.90
30250;DHT22;17064;47.974;13.826;2022-12-22T04:05:25;0.10;99.90
30250;DHT22;17064;47.974;13.826;2022-12-22T04:10:26;0.20;99.90
30250;DHT22;17064;47.974;13.826;2022-12-22T04:15:45;0.20;99.90
30250;DHT22;17064;47.974;13.826;2022-12-22T04:20:47;0.30;99.90
30250;DHT22;17064;47.974;13.826;2022-12-22T04:25:48;0.30;99.90
30250;DHT22;17064;47.974;13.826;2022-12-22T04:30:49;0.30;99.90
30250;DHT22;17064;47.974;13.826;2022-12-22T04:35:50;0.40;99.90
30250;DHT22;17064;47.974;13.826;2022-12-22T04:40:51;0.70;99.90
30250;DHT22;17064;47.974;13.826;2022-12-22T04:45:53;0.90;99.90
30250;DHT22;17064;47.974;13.826;2022-12-22T04:50:56;1.00;99.90
30250;DHT22;17064;47.974;13.826;2022-12-22T04:56:00;1.20;99.90
30250;DHT22;17064;47.974;13.826;2022-12-22T05:01:09;1.40;99.90
30250;DHT22;17064;47.974;13.826;2022-12-22T05:06:11;1.70;99.90
30250;DHT22;17064;47.974;13.826;2022-12-22T05:11:11;1.80;99.90
30250;DHT22;17064;47.974;13.826;2022-12-22T05:16:14;1.80;99.90
30250;DHT22;17064;47.974;13.826;2022-12-22T05:21:18;1.60;99.90
30250;DHT22;17064;47.974;13.826;2022-12-22T05:26:19;1.50;99.90
30250;DHT22;17064;47.974;13.826;2022-12-22T05:31:22;1.30;99.90
30250;DHT22;17064;47.974;13.826;2022-12-22T05:36:23;1.20;99.90
30250;DHT22;17064;47.974;13.826;2022-12-22T05:41:23;1.20;99.90
30250;DHT22;17064;47.974;13.826;2022-12-22T05:46:24;1.10;99.90
30250;DHT22;17064;47.974;13.826;2022-12-22T05:51:25;1.10;99.90
30250;DHT22;17064;47.974;13.826;2022-12-22T05:56:26;1.20;99.90
30250;DHT22;17064;47.974;13.826;2022-12-22T06:01:26;1.10;99.90
30250;DHT22;17064;47.974;13.826;2022-12-22T06:06:27;1.20;99.90
30250;DHT22;17064;47.974;13.826;2022-12-22T06:11:28;1.30;99.90
30250;DHT22;17064;47.974;13.826;2022-12-22T06:16:28;1.30;99.90
30250;DHT22;17064;47.974;13.826;2022-12-22T06:21:29;1.50;99.90
30250;DHT22;17064;47.974;13.826;2022-12-22T06:26:30;1.60;99.90
30250;DHT22;17064;47.974;13.826;2022-12-22T06:31:30;1.70;99.90
30250;DHT22;17064;47.974;13.826;2022-12-22T06:36:31;1.80;99.90
30250;DHT22;17064;47.974;13.826;2022-12-22T06:41:32;1.90;99.90
30250;DHT22;17064;47.974;13.826;2022-12-22T06:46:51;2.00;99.90
30250;DHT22;17064;47.974;13.826;2022-12-22T06:51:52;2.10;99.90
30250;DHT22;17064;47.974;13.826;2022-12-22T06:56:53;2.10;99.90
30250;DHT22;17064;47.974;13.826;2022-12-22T07:01:54;2.10;99.90
30250;DHT22;17064;47.974;13.826;2022-12-22T07:06:55;2.10;99.90
30250;DHT22;17064;47.974;13.826;2022-12-22T07:11:56;2.10;99.90
30250;DHT22;17064;47.974;13.826;2022-12-22T07:16:56;2.00;99.90
30250;DHT22;17064;47.974;13.826;2022-12-22T07:21:57;2.00;99.90
30250;DHT22;17064;47.974;13.826;2022-12-22T07:26:58;2.00;99.90
30250;DHT22;17064;47.974;13.826;2022-12-22T07:31:58;2.10;99.90
30250;DHT22;17064;47.974;13.826;2022-12-22T07:36:59;2.10;99.90
30250;DHT22;17064;47.974;13.826;2022-12-22T07:42:00;2.00;99.90
30250;DHT22;17064;47.974;13.826;2022-12-22T07:47:19;2.00;99.90
30250;DHT22;17064;47.974;13.826;2022-12-22T07:52:19;2.00;99.90
30250;DHT22;17064;47.974;13.826;2022-12-22T07:57:20;2.10;99.90
30250;DHT22;17064;47.974;13.826;2022-12-22T08:02:21;2.10;99.90
30250;DHT22;17064;47.974;13.826;2022-12-22T08:07:21;2.10;99.90
30250;DHT22;17064;47.974;13.826;2022-12-22T08:12:22;2.10;99.90
30250;DHT22;17064;47.974;13.826;2022-12-22T08:17:23;2.20;99.90
30250;DHT22;17064;47.974;13.826;2022-12-22T08:22:25;2.20;99.90
30250;DHT22;17064;47.974;13.826;2022-12-22T08:27:34;2.30;99.90
30250;DHT22;17064;47.974;13.826;2022-12-22T08:32:40;2.50;99.90
30250;DHT22;17064;47.974;13.826;2022-12-22T08:37:43;2.80;99.90
30250;DHT22;17064;47.974;13.826;2022-12-22T08:42:46;2.90;99.90
30250;DHT22;17064;47.974;13.826;2022-12-22T08:47:47;3.10;99.90
30250;DHT22;17064;47.974;13.826;2022-12-22T08:52:47;3.30;99.90
30250;DHT22;17064;47.974;13.826;2022-12-22T08:57:48;3.20;99.90
30250;DHT22;17064;47.974;13.826;2022-12-22T09:02:49;3.20;99.90
30250;DHT22;17064;47.974;13.826;2022-12-22T09:07:50;3.40;99.90
30250;DHT22;17064;47.974;13.826;2022-12-22T09:12:51;3.60;99.90
30250;DHT22;17064;47.974;13.826;2022-12-22T09:17:52;3.70;99.90
30250;DHT22;17064;47.974;13.826;2022-12-22T09:22:53;3.70;99.90
30250;DHT22;17064;47.974;13.826;2022-12-22T09:27:53;3.90;99.90
30250;DHT22;17064;47.974;13.826;2022-12-22T09:32:54;4.00;99.90
30250;DHT22;17064;47.974;13.826;2022-12-22T09:37:55;4.20;99.90
30250;DHT22;17064;47.974;13.826;2022-12-22T09:42:56;4.40;99.90
30250;DHT22;17064;47.974;13.826;2022-12-22T09:47:57;4.50;99.90
30250;DHT22;17064;47.974;13.826;2022-12-22T09:53:03;4.70;99.90
30250;DHT22;17064;47.974;13.826;2022-12-22T09:58:27;5.00;99.90
30250;DHT22;17064;47.974;13.826;2022-12-22T10:03:47;5.30;99.90
30250;DHT22;17064;47.974;13.826;2022-12-22T10:08:52;5.60;99.90
30250;DHT22;17064;47.974;13.826;2022-12-22T10:13:53;6.00;99.90
30250;DHT22;17064;47.974;13.826;2022-12-22T10:19:08;6.50;99.90
30250;DHT22;17064;47.974;13.826;2022-12-22T10:24:24;6.80;99.90
30250;DHT22;17064;47.974;13.826;2022-12-22T10:29:26;7.00;99.90
30250;DHT22;17064;47.974;13.826;2022-12-22T10:34:28;7.00;99.90
30250;DHT22;17064;47.974;13.826;2022-12-22T10:39:31;6.90;99.90
30250;DHT22;17064;47.974;13.826;2022-12-22T10:44:34;6.90;99.90
30250;DHT22;17064;47.974;13.826;2022-12-22T10:49:38;6.90;99.90
30250;DHT22;17064;47.974;13.826;2022-12-22T10:54:40;6.80;99.90
30250;DHT22;17064;47.974;13.826;2022-12-22T10:59:57;6.80;99.90
30250;DHT22;17064;47.974;13.826;2022-12-22T11:05:04;6.80;99.90
30250;DHT22;17064;47.974;13.826;2022-12-22T11:10:24;6.80;99.90
30250;DHT22;17064;47.974;13.826;2022-12-22T11:26:05;6.60;99.90
30250;DHT22;17064;47.974;13.826;2022-12-22T11:42:03;6.50;99.90
30250;DHT22;17064;47.974;13.826;2022-12-22T12:18:45;7.00;99.90
30250;DHT22;17064;47.974;13.826;2022-12-22T12:29:05;8.00;99.90
30250;DHT22;17064;47.974;13.826;2022-12-22T12:34:10;8.30;99.90
30250;DHT22;17064;47.974;13.826;2022-12-22T12:57:37;8.00;99.90
30250;DHT22;17064;47.974;13.826;2022-12-22T13:02:55;7.90;99.90
30250;DHT22;17064;47.974;13.826;2022-12-22T13:08:15;7.50;99.90
30250;DHT22;17064;47.974;13.826;2022-12-22T13:23:29;7.60;99.90
30250;DHT22;17064;47.974;13.826;2022-12-22T13:28:36;7.50;99.90
30250;DHT22;17064;47.974;13.826;2022-12-22T13:33:40;7.50;99.90
30250;DHT22;17064;47.974;13.826;2022-12-22T13:38:41;7.60;99.90
30250;DHT22;17064;47.974;13.826;2022-12-22T13:43:44;7.70;99.90
30250;DHT22;17064;47.974;13.826;2022-12-22T13:48:51;7.80;99.90
30250;DHT22;17064;47.974;13.826;2022-12-22T13:54:01;7.80;99.90
30250;DHT22;17064;47.974;13.826;2022-12-22T13:59:03;7.70;99.90
30250;DHT22;17064;47.974;13.826;2022-12-22T14:04:04;7.50;99.90
30250;DHT22;17064;47.974;13.826;2022-12-22T14:09:11;7.40;99.90
30250;DHT22;17064;47.974;13.826;2022-12-22T14:14:17;7.20;99.90
30250;DHT22;17064;47.974;13.826;2022-12-22T14:19:19;7.10;99.90
30250;DHT22;17064;47.974;13.826;2022-12-22T14:24:24;7.00;99.90
30250;DHT22;17064;47.974;13.826;2022-12-22T14:29:28;6.90;99.90
30250;DHT22;17064;47.974;13.826;2022-12-22T14:34:32;6.70;99.90
30250;DHT22;17064;47.974;13.826;2022-12-22T14:39:33;6.70;99.90
30250;DHT22;17064;47.974;13.826;2022-12-22T14:44:46;6.70;99.90
30250;DHT22;17064;47.974;13.826;2022-12-22T14:49:54;6.80;99.90
30250;DHT22;17064;47.974;13.826;2022-12-22T14:54:56;6.90;99.90
30250;DHT22;17064;47.974;13.826;2022-12-22T15:00:05;7.00;99.90
30250;DHT22;17064;47.974;13.826;2022-12-22T15:05:29;7.00;99.90
30250;DHT22;17064;47.974;13.826;2022-12-22T15:10:39;6.90;99.90
30250;DHT22;17064;47.974;13.826;2022-12-22T15:15:40;6.80;99.90
30250;DHT22;17064;47.974;13.826;2022-12-22T15:20:41;6.80;99.90
30250;DHT22;17064;47.974;13.826;2022-12-22T15:25:42;6.80;99.90
30250;DHT22;17064;47.974;13.826;2022-12-22T15:30:43;6.70;99.90
30250;DHT22;17064;47.974;13.826;2022-12-22T15:35:44;6.80;99.90
30250;DHT22;17064;47.974;13.826;2022-12-22T15:40:45;6.90;99.90
30250;DHT22;17064;47.974;13.826;2022-12-22T15:45:46;6.90;99.90
30250;DHT22;17064;47.974;13.826;2022-12-22T15:50:47;6.90;99.90
30250;DHT22;17064;47.974;13.826;2022-12-22T15:55:49;6.70;99.90
30250;DHT22;17064;47.974;13.826;2022-12-22T16:00:51;6.70;99.90
30250;DHT22;17064;47.974;13.826;2022-12-22T16:05:52;6.70;99.90
30250;DHT22;17064;47.974;13.826;2022-12-22T16:10:53;6.80;99.90
30250;DHT22;17064;47.974;13.826;2022-12-22T16:15:55;6.80;99.90
30250;DHT22;17064;47.974;13.826;2022-12-22T16:21:07;6.80;99.90
30250;DHT22;17064;47.974;13.826;2022-12-22T16:26:15;6.80;99.90
30250;DHT22;17064;47.974;13.826;2022-12-22T16:31:20;6.80;99.90
30250;DHT22;17064;47.974;13.826;2022-12-22T16:36:21;6.80;99.90
30250;DHT22;17064;47.974;13.826;2022-12-22T16:41:23;6.80;99.90
30250;DHT22;17064;47.974;13.826;2022-12-22T16:46:25;6.90;99.90
30250;DHT22;17064;47.974;13.826;2022-12-22T16:51:29;6.90;99.90
30250;DHT22;17064;47.974;13.826;2022-12-22T16:56:33;6.90;99.90
30250;DHT22;17064;47.974;13.826;2022-12-22T17:01:42;7.10;99.90
30250;DHT22;17064;47.974;13.826;2022-12-22T17:06:50;7.10;99.90
30250;DHT22;17064;47.974;13.826;2022-12-22T17:11:52;7.20;99.90
30250;DHT22;17064;47.974;13.826;2022-12-22T17:16:54;7.20;99.90
30250;DHT22;17064;47.974;13.826;2022-12-22T17:21:57;7.30;99.90
30250;DHT22;17064;47.974;13.826;2022-12-22T17:27:02;7.50;99.90
30250;DHT22;17064;47.974;13.826;2022-12-22T17:32:04;7.60;99.90
30250;DHT22;17064;47.974;13.826;2022-12-22T17:37:14;7.60;99.90
30250;DHT22;17064;47.974;13.826;2022-12-22T17:42:19;7.50;99.90
30250;DHT22;17064;47.974;13.826;2022-12-22T17:47:20;7.50;99.90
30250;DHT22;17064;47.974;13.826;2022-12-22T17:52:23;7.60;99.90
30250;DHT22;17064;47.974;13.826;2022-12-22T17:57:28;7.60;99.90
30250;DHT22;17064;47.974;13.826;2022-12-22T18:02:30;7.70;99.90
30250;DHT22;17064;47.974;13.826;2022-12-22T18:07:30;7.80;99.90
30250;DHT22;17064;47.974;13.826;2022-12-22T18:12:31;7.90;99.90
30250;DHT22;17064;47.974;13.826;2022-12-22T18:17:32;8.10;99.90
30250;DHT22;17064;47.974;13.826;2022-12-22T18:22:32;8.30;99.90
30250;DHT22;17064;47.974;13.826;2022-12-22T18:27:33;8.40;99.90
30250;DHT22;17064;47.974;13.826;2022-12-22T18:32:34;8.50;99.90
30250;DHT22;17064;47.974;13.826;2022-12-22T18:37:35;8.50;99.90
30250;DHT22;17064;47.974;13.826;2022-12-22T18:42:36;8.50;99.90
30250;DHT22;17064;47.974;13.826;2022-12-22T18:47:37;8.50;99.90
30250;DHT22;17064;47.974;13.826;2022-12-22T18:52:38;8.40;99.90
30250;DHT22;17064;47.974;13.826;2022-12-22T18:57:38;8.40;99.90
30250;DHT22;17064;47.974;13.826;2022-12-22T19:02:42;8.40;99.90
30250;DHT22;17064;47.974;13.826;2022-12-22T19:07:44;8.40;99.90
30250;DHT22;17064;47.974;13.826;2022-12-22T19:12:48;8.30;99.90
30250;DHT22;17064;47.974;13.826;2022-12-22T19:17:50;8.20;99.90
30250;DHT22;17064;47.974;13.826;2022-12-22T19:22:52;8.10;99.90
30250;DHT22;17064;47.974;13.826;2022-12-22T19:27:54;8.00;99.90
30250;DHT22;17064;47.974;13.826;2022-12-22T19:32:56;8.00;99.90
30250;DHT22;17064;47.974;13.826;2022-12-22T19:38:01;8.00;99.90
30250;DHT22;17064;47.974;13.826;2022-12-22T19:43:02;8.00;99.90
30250;DHT22;17064;47.974;13.826;2022-12-22T19:48:05;7.80;99.90
30250;DHT22;17064;47.974;13.826;2022-12-22T19:53:12;7.70;99.90
30250;DHT22;17064;47.974;13.826;2022-12-22T19:58:36;7.70;99.90
30250;DHT22;17064;47.974;13.826;2022-12-22T20:03:39;7.60;99.90
30250;DHT22;17064;47.974;13.826;2022-12-22T20:08:39;7.60;99.90
30250;DHT22;17064;47.974;13.826;2022-12-22T20:13:40;7.60;99.90
30250;DHT22;17064;47.974;13.826;2022-12-22T20:18:42;7.50;99.90
30250;DHT22;17064;47.974;13.826;2022-12-22T20:23:43;7.60;99.90
30250;DHT22;17064;47.974;13.826;2022-12-22T20:28:45;7.50;99.90
30250;DHT22;17064;47.974;13.826;2022-12-22T20:33:47;7.40;99.90
30250;DHT22;17064;47.974;13.826;2022-12-22T20:38:49;7.40;99.90
30250;DHT22;17064;47.974;13.826;2022-12-22T20:43:51;7.30;99.90
30250;DHT22;17064;47.974;13.826;2022-12-22T20:49:16;7.40;99.90
30250;DHT22;17064;47.974;13.826;2022-12-22T20:54:17;7.40;99.90
30250;DHT22;17064;47.974;13.826;2022-12-22T20:59:20;7.50;99.90
30250;DHT22;17064;47.974;13.826;2022-12-22T21:04:21;7.60;99.90
30250;DHT22;17064;47.974;13.826;2022-12-22T21:09:22;7.60;99.90
30250;DHT22;17064;47.974;13.826;2022-12-22T21:14:23;7.60;99.90
30250;DHT22;17064;47.974;13.826;2022-12-22T21:19:24;7.50;99.90
30250;DHT22;17064;47.974;13.826;2022-12-22T21:24:24;7.50;99.90
30250;DHT22;17064;47.974;13.826;2022-12-22T21:29:26;7.60;99.90
30250;DHT22;17064;47.974;13.826;2022-12-22T21:34:26;7.60;99.90
30250;DHT22;17064;47.974;13.826;2022-12-22T21:44:29;7.30;99.90
30250;DHT22;17064;47.974;13.826;2022-12-22T21:49:31;7.20;99.90
30250;DHT22;17064;47.974;13.826;2022-12-22T21:54:32;7.20;99.90
30250;DHT22;17064;47.974;13.826;2022-12-22T21:59:33;7.20;99.90
30250;DHT22;17064;47.974;13.826;2022-12-22T22:04:34;7.20;99.90
30250;DHT22;17064;47.974;13.826;2022-12-22T22:09:34;7.10;99.90
30250;DHT22;17064;47.974;13.826;2022-12-22T22:14:35;7.20;99.90
30250;DHT22;17064;47.974;13.826;2022-12-22T22:19:36;7.20;99.90
30250;DHT22;17064;47.974;13.826;2022-12-22T22:24:37;7.30;99.90
30250;DHT22;17064;47.974;13.826;2022-12-22T22:29:38;7.30;99.90
30250;DHT22;17064;47.974;13.826;2022-12-22T22:34:39;7.30;99.90
30250;DHT22;17064;47.974;13.826;2022-12-22T22:39:40;7.20;99.90
30250;DHT22;17064;47.974;13.826;2022-12-22T22:44:40;7.20;99.90
30250;DHT22;17064;47.974;13.826;2022-12-22T22:49:41;7.10;99.90
30250;DHT22;17064;47.974;13.826;2022-12-22T22:54:42;7.10;99.90
30250;DHT22;17064;47.974;13.826;2022-12-22T22:59:43;7.10;99.90
30250;DHT22;17064;47.974;13.826;2022-12-22T23:04:44;7.10;99.90
30250;DHT22;17064;47.974;13.826;2022-12-22T23:09:44;7.00;99.90
30250;DHT22;17064;47.974;13.826;2022-12-22T23:14:45;7.00;99.90
30250;DHT22;17064;47.974;13.826;2022-12-22T23:19:46;7.00;99.90
30250;DHT22;17064;47.974;13.826;2022-12-22T23:24:47;6.90;99.90
30250;DHT22;17064;47.974;13.826;2022-12-22T23:29:47;6.90;99.90
30250;DHT22;17064;47.974;13.826;2022-12-22T23:34:48;6.80;99.90
30250;DHT22;17064;47.974;13.826;2022-12-22T23:39:49;6.90;99.90
30250;DHT22;17064;47.974;13.826;2022-12-22T23:44:49;7.00;99.90
30250;DHT22;17064;47.974;13.826;2022-12-22T23:49:50;6.90;99.90
30250;DHT22;17064;47.974;13.826;2022-12-22T23:54:51;6.80;99.90
30250;DHT22;17064;47.974;13.826;2022-12-22T23:59:51;6.80;99.90
